sensor_id;sensor_type;location;lat;lon;timestamp;pressure;altitude;pressure_sealevel;temperature;humidity
40490;BME280;26196;52.302;10.572;2023-01-31T00:03:57;100863.56;;;7.73;58.00
40490;BME280;26196;52.302;10.572;2023-01-31T00:07:57;100860.84;;;7.83;57.90
40490;BME280;26196;52.302;10.572;2023-01-31T00:11:58;100872.97;;;7.84;57.53
40490;BME280;26196;52.302;10.572;2023-01-31T00:15:58;100876.53;;;7.80;57.64
40490;BME280;26196;52.302;10.572;2023-01-31T00:19:59;100882.63;;;7.78;57.48
40490;BME280;26196;52.302;10.572;2023-01-31T00:23:59;100883.47;;;7.78;57.35
40490;BME280;26196;52.302;10.572;2023-01-31T00:28:00;100882.56;;;7.84;57.06
40490;BME280;26196;52.302;10.572;2023-01-31T00:32:00;100891.25;;;7.81;57.22
40490;BME280;26196;52.302;10.572;2023-01-31T00:36:09;100898.22;;;7.81;57.66
40490;BME280;26196;52.302;10.572;2023-01-31T00:40:40;100903.47;;;7.76;57.76
40490;BME280;26196;52.302;10.572;2023-01-31T00:44:41;100908.66;;;7.82;57.58
40490;BME280;26196;52.302;10.572;2023-01-31T00:48:41;100900.03;;;7.73;57.49
40490;BME280;26196;52.302;10.572;2023-01-31T00:53:16;100892.25;;;7.68;57.18
40490;BME280;26196;52.302;10.572;2023-01-31T00:57:22;100891.38;;;7.72;57.31
40490;BME280;26196;52.302;10.572;2023-01-31T01:01:25;100908.72;;;7.73;57.44
40490;BME280;26196;52.302;10.572;2023-01-31T01:05:26;100909.59;;;7.72;56.75
40490;BME280;26196;52.302;10.572;2023-01-31T01:09:26;100914.03;;;7.62;56.74
40490;BME280;26196;52.302;10.572;2023-01-31T01:14:01;100912.28;;;7.63;56.78
40490;BME280;26196;52.302;10.572;2023-01-31T01:18:01;100915.72;;;7.68;56.65
40490;BME280;26196;52.302;10.572;2023-01-31T01:22:01;100924.41;;;7.67;57.02
40490;BME280;26196;52.302;10.572;2023-01-31T01:26:04;100933.97;;;7.66;56.44
40490;BME280;26196;52.302;10.572;2023-01-31T01:30:05;100935.63;;;7.74;56.43
40490;BME280;26196;52.302;10.572;2023-01-31T01:34:12;100938.28;;;7.72;56.75
40490;BME280;26196;52.302;10.572;2023-01-31T01:38:42;100937.41;;;7.70;57.13
40490;BME280;26196;52.302;10.572;2023-01-31T01:42:42;100947.00;;;7.65;56.75
40490;BME280;26196;52.302;10.572;2023-01-31T01:46:43;100948.75;;;7.63;56.84
40490;BME280;26196;52.302;10.572;2023-01-31T01:50:47;100947.97;;;7.55;57.27
40490;BME280;26196;52.302;10.572;2023-01-31T01:54:53;100963.63;;;7.49;57.35
40490;BME280;26196;52.302;10.572;2023-01-31T01:59:02;100980.13;;;7.48;57.42
40490;BME280;26196;52.302;10.572;2023-01-31T02:03:05;100967.06;;;7.51;57.19
40490;BME280;26196;52.302;10.572;2023-01-31T02:07:07;100964.44;;;7.55;57.23
40490;BME280;26196;52.302;10.572;2023-01-31T02:11:28;100999.09;;;7.68;57.31
40490;BME280;26196;52.302;10.572;2023-01-31T02:15:59;100988.72;;;7.60;57.82
40490;BME280;26196;52.302;10.572;2023-01-31T02:20:16;101003.50;;;7.58;57.84
40490;BME280;26196;52.302;10.572;2023-01-31T02:24:45;101013.06;;;7.53;58.02
40490;BME280;26196;52.302;10.572;2023-01-31T02:45:52;100986.97;;;7.61;58.06
40490;BME280;26196;52.302;10.572;2023-01-31T02:50:30;100984.41;;;7.58;57.95
40490;BME280;26196;52.302;10.572;2023-01-31T02:54:35;100989.66;;;7.52;57.73
40490;BME280;26196;52.302;10.572;2023-01-31T02:59:19;100988.75;;;7.56;57.91
40490;BME280;26196;52.302;10.572;2023-01-31T03:03:49;101005.28;;;7.50;57.93
40490;BME280;26196;52.302;10.572;2023-01-31T03:07:57;101003.53;;;7.52;57.93
40490;BME280;26196;52.302;10.572;2023-01-31T03:16:19;101000.94;;;7.52;57.94
40490;BME280;26196;52.302;10.572;2023-01-31T03:21:05;100997.41;;;7.61;57.91
40490;BME280;26196;52.302;10.572;2023-01-31T03:25:09;101002.59;;;7.64;57.68
40490;BME280;26196;52.302;10.572;2023-01-31T03:29:14;100989.63;;;7.55;58.03
40490;BME280;26196;52.302;10.572;2023-01-31T03:33:28;100994.00;;;7.54;57.79
40490;BME280;26196;52.302;10.572;2023-01-31T03:41:36;100996.56;;;7.59;58.02
40490;BME280;26196;52.302;10.572;2023-01-31T03:45:50;100986.94;;;7.67;57.64
40490;BME280;26196;52.302;10.572;2023-01-31T03:49:54;101000.00;;;7.62;57.80
40490;BME280;26196;52.302;10.572;2023-01-31T03:54:19;100987.84;;;7.64;58.32
40490;BME280;26196;52.302;10.572;2023-01-31T03:58:27;100996.53;;;7.60;57.85
40490;BME280;26196;52.302;10.572;2023-01-31T04:02:36;100986.09;;;7.63;57.79
40490;BME280;26196;52.302;10.572;2023-01-31T04:11:10;100972.19;;;7.64;57.81
40490;BME280;26196;52.302;10.572;2023-01-31T04:15:12;100974.81;;;7.64;57.83
40490;BME280;26196;52.302;10.572;2023-01-31T04:19:13;100983.44;;;7.68;57.48
40490;BME280;26196;52.302;10.572;2023-01-31T04:23:47;100986.09;;;7.63;57.48
40490;BME280;26196;52.302;10.572;2023-01-31T04:27:47;100982.59;;;7.67;57.86
40490;BME280;26196;52.302;10.572;2023-01-31T04:31:48;100969.50;;;7.74;57.48
40490;BME280;26196;52.302;10.572;2023-01-31T04:35:50;100979.91;;;7.77;57.59
40490;BME280;26196;52.302;10.572;2023-01-31T04:39:50;100988.59;;;7.77;57.85
40490;BME280;26196;52.302;10.572;2023-01-31T04:44:28;100972.94;;;7.80;57.46
40490;BME280;26196;52.302;10.572;2023-01-31T04:49:05;100985.09;;;7.81;57.27
40490;BME280;26196;52.302;10.572;2023-01-31T04:57:44;100983.38;;;7.79;57.88
40490;BME280;26196;52.302;10.572;2023-01-31T05:02:18;100997.25;;;7.82;57.58
40490;BME280;26196;52.302;10.572;2023-01-31T05:06:18;101003.31;;;7.83;57.38
40490;BME280;26196;52.302;10.572;2023-01-31T05:14:56;101011.13;;;7.86;57.25
40490;BME280;26196;52.302;10.572;2023-01-31T05:18:56;101005.84;;;7.94;57.21
40490;BME280;26196;52.302;10.572;2023-01-31T05:22:57;100990.16;;;7.97;56.87
40490;BME280;26196;52.302;10.572;2023-01-31T05:27:33;100989.31;;;7.95;57.46
40490;BME280;26196;52.302;10.572;2023-01-31T05:31:33;100994.53;;;7.96;57.27
40490;BME280;26196;52.302;10.572;2023-01-31T05:35:34;100993.53;;;8.08;56.87
40490;BME280;26196;52.302;10.572;2023-01-31T05:40:09;100994.53;;;7.96;56.92
40490;BME280;26196;52.302;10.572;2023-01-31T05:44:44;100998.91;;;7.91;56.97
40490;BME280;26196;52.302;10.572;2023-01-31T07:28:01;100901.22;;;8.27;57.26
40490;BME280;26196;52.302;10.572;2023-01-31T07:32:01;100904.72;;;8.26;57.34
40490;BME280;26196;52.302;10.572;2023-01-31T07:36:03;100892.50;;;8.30;57.29
40490;BME280;26196;52.302;10.572;2023-01-31T07:40:37;100895.91;;;8.40;56.96
40490;BME280;26196;52.302;10.572;2023-01-31T07:44:39;100891.44;;;8.46;56.76
40490;BME280;26196;52.302;10.572;2023-01-31T07:48:39;100874.94;;;8.46;57.23
40490;BME280;26196;52.302;10.572;2023-01-31T07:52:40;100882.78;;;8.46;56.87
40490;BME280;26196;52.302;10.572;2023-01-31T07:56:40;100869.63;;;8.52;56.78
40490;BME280;26196;52.302;10.572;2023-01-31T08:00:41;100859.13;;;8.58;57.26
40490;BME280;26196;52.302;10.572;2023-01-31T08:05:15;100844.19;;;8.68;56.93
40490;BME280;26196;52.302;10.572;2023-01-31T08:09:16;100840.63;;;8.76;56.49
40490;BME280;26196;52.302;10.572;2023-01-31T08:13:16;100850.84;;;8.89;56.38
40490;BME280;26196;52.302;10.572;2023-01-31T08:17:16;100855.16;;;8.93;56.87
40490;BME280;26196;52.302;10.572;2023-01-31T08:25:51;100854.25;;;8.97;56.62
40490;BME280;26196;52.302;10.572;2023-01-31T08:29:51;100843.91;;;8.89;57.18
40490;BME280;26196;52.302;10.572;2023-01-31T08:33:52;100836.03;;;8.91;57.06
40490;BME280;26196;52.302;10.572;2023-01-31T08:37:52;100839.50;;;8.93;57.20
40490;BME280;26196;52.302;10.572;2023-01-31T08:42:27;100823.84;;;8.93;56.74
40490;BME280;26196;52.302;10.572;2023-01-31T08:51:41;100816.91;;;8.92;56.75
40490;BME280;26196;52.302;10.572;2023-01-31T08:56:16;100807.25;;;8.95;57.55
40490;BME280;26196;52.302;10.572;2023-01-31T09:00:17;100795.06;;;8.97;56.93
40490;BME280;26196;52.302;10.572;2023-01-31T09:04:18;100794.75;;;9.16;57.08
40490;BME280;26196;52.302;10.572;2023-01-31T09:08:54;100787.03;;;9.08;57.53
40490;BME280;26196;52.302;10.572;2023-01-31T09:12:54;100788.88;;;9.03;57.12
40490;BME280;26196;52.302;10.572;2023-01-31T09:16:54;100756.63;;;9.04;57.67
40490;BME280;26196;52.302;10.572;2023-01-31T09:21:32;100772.28;;;9.04;57.55
40490;BME280;26196;52.302;10.572;2023-01-31T09:25:32;100773.19;;;9.03;58.46
40490;BME280;26196;52.302;10.572;2023-01-31T09:30:10;100750.41;;;9.11;57.94
40490;BME280;26196;52.302;10.572;2023-01-31T09:34:10;100748.53;;;9.19;57.34
40490;BME280;26196;52.302;10.572;2023-01-31T09:38:51;100753.69;;;9.23;58.81
40490;BME280;26196;52.302;10.572;2023-01-31T09:42:53;100746.78;;;9.20;59.51
40490;BME280;26196;52.302;10.572;2023-01-31T09:47:30;100752.97;;;9.16;60.11
40490;BME280;26196;52.302;10.572;2023-01-31T09:51:33;100739.78;;;9.22;59.91
40490;BME280;26196;52.302;10.572;2023-01-31T10:13:36;100712.09;;;9.13;60.54
40490;BME280;26196;52.302;10.572;2023-01-31T10:22:22;100706.09;;;9.08;60.50
40490;BME280;26196;52.302;10.572;2023-01-31T10:36:00;100703.66;;;8.97;60.75
40490;BME280;26196;52.302;10.572;2023-01-31T10:40:35;100686.19;;;9.01;61.52
40490;BME280;26196;52.302;10.572;2023-01-31T10:45:15;100696.38;;;9.15;60.69
40490;BME280;26196;52.302;10.572;2023-01-31T10:49:48;100687.69;;;9.14;61.32
40490;BME280;26196;52.302;10.572;2023-01-31T10:58:26;100662.41;;;9.18;61.28
40490;BME280;26196;52.302;10.572;2023-01-31T11:07:37;100630.06;;;9.24;60.54
40490;BME280;26196;52.302;10.572;2023-01-31T11:12:15;100627.47;;;9.24;60.56
40490;BME280;26196;52.302;10.572;2023-01-31T11:16:15;100596.06;;;9.27;60.63
40490;BME280;26196;52.302;10.572;2023-01-31T11:20:37;100570.69;;;9.33;60.98
40490;BME280;26196;52.302;10.572;2023-01-31T11:24:54;100562.88;;;9.30;60.89
40490;BME280;26196;52.302;10.572;2023-01-31T11:37:53;100547.81;;;9.43;60.51
40490;BME280;26196;52.302;10.572;2023-01-31T11:41:54;100555.41;;;9.54;59.75
40490;BME280;26196;52.302;10.572;2023-01-31T11:46:01;100537.00;;;9.58;59.42
40490;BME280;26196;52.302;10.572;2023-01-31T11:50:02;100543.06;;;9.60;60.05
40490;BME280;26196;52.302;10.572;2023-01-31T11:54:04;100530.19;;;9.53;61.00
40490;BME280;26196;52.302;10.572;2023-01-31T11:58:14;100532.78;;;9.54;60.57
40490;BME280;26196;52.302;10.572;2023-01-31T12:06:41;100514.75;;;9.42;60.17
40490;BME280;26196;52.302;10.572;2023-01-31T12:10:44;100510.47;;;9.38;60.12
40490;BME280;26196;52.302;10.572;2023-01-31T12:14:46;100497.34;;;9.41;60.50
40490;BME280;26196;52.302;10.572;2023-01-31T12:19:25;100501.69;;;9.42;61.03
40490;BME280;26196;52.302;10.572;2023-01-31T12:23:41;100503.47;;;9.40;60.26
40490;BME280;26196;52.302;10.572;2023-01-31T12:41:16;100464.09;;;9.49;59.99
40490;BME280;26196;52.302;10.572;2023-01-31T12:45:35;100468.47;;;9.47;60.31
40490;BME280;26196;52.302;10.572;2023-01-31T13:12:59;100470.41;;;9.39;59.92
40490;BME280;26196;52.302;10.572;2023-01-31T13:17:04;100458.22;;;9.38;59.96
40490;BME280;26196;52.302;10.572;2023-01-31T13:21:38;100457.44;;;9.36;60.16
40490;BME280;26196;52.302;10.572;2023-01-31T13:40:49;100464.53;;;9.29;61.01
40490;BME280;26196;52.302;10.572;2023-01-31T13:45:26;100474.06;;;9.32;60.66
40490;BME280;26196;52.302;10.572;2023-01-31T13:49:35;100475.66;;;9.37;60.91
40490;BME280;26196;52.302;10.572;2023-01-31T13:54:15;100471.28;;;9.38;61.12
40490;BME280;26196;52.302;10.572;2023-01-31T14:03:25;100468.59;;;9.41;60.75
40490;BME280;26196;52.302;10.572;2023-01-31T14:12:40;100449.44;;;9.42;61.12
40490;BME280;26196;52.302;10.572;2023-01-31T14:31:11;100431.06;;;9.45;60.73
40490;BME280;26196;52.302;10.572;2023-01-31T15:06:33;100423.81;;;9.56;60.98
40490;BME280;26196;52.302;10.572;2023-01-31T15:15:30;100416.31;;;9.44;60.99
40490;BME280;26196;52.302;10.572;2023-01-31T15:24:19;100417.06;;;9.49;61.07
40490;BME280;26196;52.302;10.572;2023-01-31T15:28:51;100424.88;;;9.49;61.13
40490;BME280;26196;52.302;10.572;2023-01-31T15:37:32;100416.97;;;9.52;61.42
40490;BME280;26196;52.302;10.572;2023-01-31T15:41:39;100410.91;;;9.50;61.91
40490;BME280;26196;52.302;10.572;2023-01-31T15:45:40;100423.91;;;9.53;61.97
40490;BME280;26196;52.302;10.572;2023-01-31T15:54:18;100399.56;;;9.51;61.22
40490;BME280;26196;52.302;10.572;2023-01-31T15:58:55;100420.41;;;9.54;61.00
40490;BME280;26196;52.302;10.572;2023-01-31T16:02:57;100413.44;;;9.53;61.50
40490;BME280;26196;52.302;10.572;2023-01-31T16:07:34;100415.25;;;9.51;61.74
40490;BME280;26196;52.302;10.572;2023-01-31T16:11:35;100410.00;;;9.51;61.45
40490;BME280;26196;52.302;10.572;2023-01-31T16:15:35;100407.38;;;9.53;61.79
40490;BME280;26196;52.302;10.572;2023-01-31T16:24:53;100417.63;;;9.60;61.47
40490;BME280;26196;52.302;10.572;2023-01-31T16:34:13;100403.56;;;9.66;61.58
40490;BME280;26196;52.302;10.572;2023-01-31T16:38:24;100402.00;;;9.59;61.70
40490;BME280;26196;52.302;10.572;2023-01-31T16:42:26;100385.47;;;9.58;61.91
40490;BME280;26196;52.302;10.572;2023-01-31T16:46:39;100418.50;;;9.61;61.61
40490;BME280;26196;52.302;10.572;2023-01-31T16:59:56;100425.31;;;9.67;61.56
40490;BME280;26196;52.302;10.572;2023-01-31T17:04:36;100433.25;;;9.63;62.25
40490;BME280;26196;52.302;10.572;2023-01-31T17:09:08;100444.69;;;9.59;61.82
40490;BME280;26196;52.302;10.572;2023-01-31T17:13:45;100441.38;;;9.51;62.18
40490;BME280;26196;52.302;10.572;2023-01-31T17:17:46;100432.66;;;9.52;62.16
40490;BME280;26196;52.302;10.572;2023-01-31T17:21:47;100447.34;;;9.56;62.02
40490;BME280;26196;52.302;10.572;2023-01-31T17:26:23;100445.91;;;9.43;61.72
40490;BME280;26196;52.302;10.572;2023-01-31T17:31:00;100432.75;;;9.48;62.55
40490;BME280;26196;52.302;10.572;2023-01-31T17:35:00;100426.44;;;9.56;61.76
40490;BME280;26196;52.302;10.572;2023-01-31T17:39:01;100423.78;;;9.59;62.25
40490;BME280;26196;52.302;10.572;2023-01-31T17:43:03;100429.84;;;9.60;62.38
40490;BME280;26196;52.302;10.572;2023-01-31T17:47:38;100437.44;;;9.69;62.68
40490;BME280;26196;52.302;10.572;2023-01-31T17:52:15;100447.16;;;9.64;62.64
40490;BME280;26196;52.302;10.572;2023-01-31T17:56:50;100439.66;;;9.50;61.81
40490;BME280;26196;52.302;10.572;2023-01-31T18:00:50;100442.44;;;9.42;62.16
40490;BME280;26196;52.302;10.572;2023-01-31T18:04:50;100430.41;;;9.35;62.01
40490;BME280;26196;52.302;10.572;2023-01-31T18:09:25;100437.47;;;9.33;61.43
40490;BME280;26196;52.302;10.572;2023-01-31T18:14:02;100427.88;;;9.34;61.54
40490;BME280;26196;52.302;10.572;2023-01-31T18:23:13;100430.56;;;9.29;61.55
40490;BME280;26196;52.302;10.572;2023-01-31T18:31:48;100434.13;;;9.25;61.63
40490;BME280;26196;52.302;10.572;2023-01-31T18:36:22;100433.28;;;9.25;62.36
40490;BME280;26196;52.302;10.572;2023-01-31T18:41:03;100450.78;;;9.21;61.57
40490;BME280;26196;52.302;10.572;2023-01-31T18:45:04;100464.53;;;9.29;62.17
40490;BME280;26196;52.302;10.572;2023-01-31T18:54:15;100454.06;;;9.31;62.42
40490;BME280;26196;52.302;10.572;2023-01-31T18:58:53;100445.31;;;9.32;61.97
40490;BME280;26196;52.302;10.572;2023-01-31T19:12:42;100439.38;;;9.25;62.66
40490;BME280;26196;52.302;10.572;2023-01-31T19:21:39;100458.75;;;9.15;63.01
40490;BME280;26196;52.302;10.572;2023-01-31T19:26:14;100453.53;;;9.15;62.73
40490;BME280;26196;52.302;10.572;2023-01-31T19:30:52;100463.19;;;9.11;62.42
40490;BME280;26196;52.302;10.572;2023-01-31T19:39:29;100464.09;;;9.09;62.83
40490;BME280;26196;52.302;10.572;2023-01-31T19:48:07;100471.22;;;9.02;62.46
40490;BME280;26196;52.302;10.572;2023-01-31T19:52:44;100479.94;;;9.01;62.48
40490;BME280;26196;52.302;10.572;2023-01-31T19:56:45;100480.00;;;9.00;62.12
40490;BME280;26196;52.302;10.572;2023-01-31T20:00:45;100486.13;;;8.97;61.75
40490;BME280;26196;52.302;10.572;2023-01-31T20:05:21;100489.81;;;8.87;61.71
40490;BME280;26196;52.302;10.572;2023-01-31T20:09:21;100489.91;;;8.82;61.76
40490;BME280;26196;52.302;10.572;2023-01-31T20:13:22;100501.25;;;8.81;61.17
40490;BME280;26196;52.302;10.572;2023-01-31T20:17:23;100508.31;;;8.76;61.29
40490;BME280;26196;52.302;10.572;2023-01-31T20:21:24;100513.69;;;8.67;61.35
40490;BME280;26196;52.302;10.572;2023-01-31T20:30:03;100520.69;;;8.65;61.46
40490;BME280;26196;52.302;10.572;2023-01-31T20:34:03;100522.50;;;8.61;61.66
40490;BME280;26196;52.302;10.572;2023-01-31T20:38:39;100524.25;;;8.61;61.38
40490;BME280;26196;52.302;10.572;2023-01-31T20:42:40;100532.16;;;8.56;61.29
40490;BME280;26196;52.302;10.572;2023-01-31T20:46:40;100539.16;;;8.54;61.88
40490;BME280;26196;52.302;10.572;2023-01-31T20:50:40;100527.09;;;8.48;61.93
40490;BME280;26196;52.302;10.572;2023-01-31T20:54:41;100526.16;;;8.52;61.59
40490;BME280;26196;52.302;10.572;2023-01-31T20:58:42;100537.63;;;8.42;61.97
40490;BME280;26196;52.302;10.572;2023-01-31T21:02:42;100535.94;;;8.37;61.99
40490;BME280;26196;52.302;10.572;2023-01-31T21:06:43;100530.72;;;8.37;62.05
40490;BME280;26196;52.302;10.572;2023-01-31T21:10:54;100532.47;;;8.36;61.98
40490;BME280;26196;52.302;10.572;2023-01-31T21:14:55;100520.28;;;8.37;62.24
40490;BME280;26196;52.302;10.572;2023-01-31T21:18:56;100521.09;;;8.42;61.44
40490;BME280;26196;52.302;10.572;2023-01-31T21:22:57;100522.03;;;8.39;61.13
40490;BME280;26196;52.302;10.572;2023-01-31T21:26:57;100517.72;;;8.35;61.19
40490;BME280;26196;52.302;10.572;2023-01-31T21:35:35;100528.22;;;8.32;61.30
40490;BME280;26196;52.302;10.572;2023-01-31T21:39:35;100523.97;;;8.26;61.42
40490;BME280;26196;52.302;10.572;2023-01-31T21:43:35;100522.09;;;8.33;61.56
40490;BME280;26196;52.302;10.572;2023-01-31T21:47:41;100528.25;;;8.30;61.45
40490;BME280;26196;52.302;10.572;2023-01-31T21:52:01;100523.97;;;8.26;61.53
40490;BME280;26196;52.302;10.572;2023-01-31T21:56:06;100511.03;;;8.20;61.15
40490;BME280;26196;52.302;10.572;2023-01-31T22:00:08;100517.06;;;8.24;61.05
40490;BME280;26196;52.302;10.572;2023-01-31T22:04:42;100516.22;;;8.22;60.57
40490;BME280;26196;52.302;10.572;2023-01-31T22:08:43;100520.59;;;8.20;61.05
40490;BME280;26196;52.302;10.572;2023-01-31T22:12:43;100527.56;;;8.19;61.00
40490;BME280;26196;52.302;10.572;2023-01-31T22:16:43;100523.28;;;8.15;61.00
40490;BME280;26196;52.302;10.572;2023-01-31T22:20:44;100523.28;;;8.17;61.08
40490;BME280;26196;52.302;10.572;2023-01-31T22:24:44;100530.31;;;8.11;60.59
40490;BME280;26196;52.302;10.572;2023-01-31T22:28:44;100521.72;;;8.06;60.60
40490;BME280;26196;52.302;10.572;2023-01-31T22:32:45;100529.53;;;8.06;61.05
40490;BME280;26196;52.302;10.572;2023-01-31T22:36:45;100523.59;;;7.98;60.78
40490;BME280;26196;52.302;10.572;2023-01-31T22:40:46;100515.00;;;7.92;60.65
40490;BME280;26196;52.302;10.572;2023-01-31T22:44:46;100522.69;;;7.99;61.10
40490;BME280;26196;52.302;10.572;2023-01-31T22:49:23;100507.88;;;8.01;60.93
40490;BME280;26196;52.302;10.572;2023-01-31T22:53:24;100510.56;;;7.98;60.38
40490;BME280;26196;52.302;10.572;2023-01-31T22:57:25;100508.00;;;7.94;59.93
40490;BME280;26196;52.302;10.572;2023-01-31T23:01:29;100514.06;;;7.94;60.24
40490;BME280;26196;52.302;10.572;2023-01-31T23:05:30;100504.63;;;7.88;60.49
40490;BME280;26196;52.302;10.572;2023-01-31T23:09:30;100513.22;;;7.92;60.21
40490;BME280;26196;52.302;10.572;2023-01-31T23:14:08;100511.47;;;7.94;60.89
40490;BME280;26196;52.302;10.572;2023-01-31T23:18:08;100513.28;;;7.91;59.78
40490;BME280;26196;52.302;10.572;2023-01-31T23:22:08;100526.44;;;7.81;59.90
40490;BME280;26196;52.302;10.572;2023-01-31T23:26:46;100518.69;;;7.78;60.21
40490;BME280;26196;52.302;10.572;2023-01-31T23:30:46;100516.00;;;7.81;59.97
40490;BME280;26196;52.302;10.572;2023-01-31T23:34:46;100510.06;;;7.75;60.24
40490;BME280;26196;52.302;10.572;2023-01-31T23:38:46;100515.34;;;7.70;60.67
40490;BME280;26196;52.302;10.572;2023-01-31T23:43:21;100516.13;;;7.75;60.22
40490;BME280;26196;52.302;10.572;2023-01-31T23:47:22;100513.63;;;7.69;60.45
40490;BME280;26196;52.302;10.572;2023-01-31T23:51:22;100515.38;;;7.67;60.48
40490;BME280;26196;52.302;10.572;2023-01-31T23:55:23;100512.84;;;7.64;60.55
40490;BME280;26196;52.302;10.572;2023-01-31T23:59:23;100511.03;;;7.67;60.74
